createdAt,value
2023-03-15T16:41:20.643Z,8.50
2023-03-15T16:43:49.550Z,8.40
2023-03-15T16:46:17.710Z,9.60
2023-03-15T16:48:47.618Z,9.00
2023-03-15T16:51:15.907Z,11.30
2023-03-15T16:53:47.460Z,10.10
2023-03-15T16:56:16.365Z,10.00
2023-03-15T16:58:52.837Z,11.10
2023-03-15T17:01:20.813Z,10.40
2023-03-15T17:03:48.955Z,10.60
2023-03-15T17:06:23.278Z,14.30
2023-03-15T17:08:54.163Z,11.20
2023-03-15T17:11:22.012Z,12.20
2023-03-15T17:13:50.676Z,10.70
2023-03-15T17:16:19.326Z,11.80
2023-03-15T17:18:48.878Z,10.50
2023-03-15T17:21:20.115Z,10.70
2023-03-15T17:23:48.330Z,11.40
2023-03-15T17:26:22.925Z,11.00
2023-03-15T17:28:52.510Z,11.30
2023-03-15T17:31:25.557Z,11.10
2023-03-15T17:33:56.503Z,11.60
2023-03-15T17:36:25.993Z,11.90
2023-03-15T17:38:55.077Z,10.80
2023-03-15T17:41:28.050Z,10.60
2023-03-15T17:43:56.148Z,11.90
2023-03-15T17:46:33.326Z,11.20
2023-03-15T17:49:02.956Z,11.40
2023-03-15T17:51:32.831Z,13.20
2023-03-15T17:54:01.188Z,13.60
2023-03-15T17:56:29.587Z,12.60
2023-03-15T17:58:57.663Z,12.90
2023-03-15T18:01:27.835Z,12.50
2023-03-15T18:04:05.270Z,12.40
2023-03-15T18:06:33.348Z,12.60
2023-03-15T18:09:01.797Z,13.10
2023-03-15T18:11:35.855Z,13.70
2023-03-15T18:14:04.145Z,12.60
2023-03-15T18:16:33.658Z,13.60
2023-03-15T18:19:03.141Z,14.40
2023-03-15T18:21:31.206Z,13.40
2023-03-15T18:23:59.831Z,13.30
2023-03-15T18:26:28.120Z,12.70
2023-03-15T18:28:56.016Z,14.00
2023-03-15T18:31:25.360Z,14.00
2023-03-15T18:33:53.619Z,13.60
2023-03-15T18:36:25.725Z,14.80
2023-03-15T18:38:54.133Z,15.30
2023-03-15T18:41:23.631Z,14.60
2023-03-15T18:43:52.787Z,14.80
2023-03-15T18:46:23.996Z,14.80
2023-03-15T18:48:55.815Z,14.90
2023-03-15T18:51:25.782Z,16.70
2023-03-15T18:53:54.486Z,15.10
2023-03-15T18:56:27.362Z,15.50
2023-03-15T18:58:55.517Z,15.50
2023-03-15T19:01:24.792Z,17.10
2023-03-15T19:03:54.150Z,16.70
2023-03-15T19:06:27.535Z,17.20
2023-03-15T19:08:57.516Z,17.50
2023-03-15T19:11:27.041Z,18.10
2023-03-15T19:13:55.441Z,17.60
2023-03-15T19:16:24.721Z,17.90
2023-03-15T19:18:52.915Z,17.20
2023-03-15T19:21:27.742Z,17.80
2023-03-15T19:23:57.151Z,17.20
2023-03-15T19:26:26.116Z,16.30
2023-03-15T19:28:56.515Z,17.90
2023-03-15T19:31:24.929Z,18.00
2023-03-15T19:33:59.063Z,17.30
2023-03-15T19:36:27.139Z,17.00
2023-03-15T19:38:55.756Z,17.20
2023-03-15T19:41:27.187Z,16.60
2023-03-15T19:43:56.055Z,15.60
2023-03-15T19:46:29.857Z,16.30
2023-03-15T19:48:57.892Z,18.00
2023-03-15T19:51:27.890Z,17.40
2023-03-15T19:53:57.076Z,16.90
2023-03-15T19:56:25.823Z,16.40
2023-03-15T19:58:56.796Z,16.80
2023-03-15T20:01:25.049Z,16.10
2023-03-15T20:03:53.174Z,16.50
2023-03-15T20:06:22.243Z,16.20
2023-03-15T20:08:51.236Z,17.30
2023-03-15T20:11:25.961Z,17.30
2023-03-15T20:13:54.653Z,16.80
2023-03-15T20:16:22.889Z,16.20
2023-03-15T20:18:55.942Z,15.20
2023-03-15T20:21:24.371Z,15.70
2023-03-15T20:23:52.584Z,16.60
2023-03-15T20:26:22.596Z,14.70
2023-03-15T20:28:50.907Z,16.30
2023-03-15T20:31:22.163Z,16.40
2023-03-15T20:33:51.019Z,15.70
2023-03-15T20:36:19.096Z,16.20
2023-03-15T20:38:47.167Z,16.20
2023-03-15T20:41:18.885Z,15.60
2023-03-15T20:43:48.683Z,14.90
2023-03-15T20:46:19.320Z,15.20
2023-03-15T20:48:47.291Z,15.80
2023-03-15T20:51:15.511Z,16.40
2023-03-15T20:53:43.535Z,15.60
2023-03-15T20:56:12.031Z,14.60
2023-03-15T20:58:40.227Z,13.90
2023-03-15T21:01:16.922Z,15.30
2023-03-15T21:03:46.634Z,15.20
2023-03-15T21:06:15.092Z,14.30
2023-03-15T21:08:43.998Z,15.30
2023-03-15T21:11:12.954Z,14.80
2023-03-15T21:13:41.015Z,15.50
2023-03-15T21:16:09.176Z,14.90
2023-03-15T21:18:38.644Z,15.00
2023-03-15T21:21:07.546Z,16.00
2023-03-15T21:23:35.813Z,15.30
2023-03-15T21:26:05.739Z,15.20
2023-03-15T21:28:41.849Z,15.10
2023-03-15T21:31:10.620Z,14.30
2023-03-15T21:33:38.919Z,15.70
2023-03-15T21:36:07.853Z,15.20
2023-03-15T21:38:37.479Z,15.80
2023-03-15T21:41:09.112Z,14.40
2023-03-15T21:43:38.237Z,14.00
2023-03-15T21:46:13.964Z,15.80
2023-03-15T21:48:43.967Z,15.60
2023-03-15T21:51:14.647Z,15.30
2023-03-15T21:53:46.588Z,14.90
2023-03-15T21:56:14.841Z,14.90
2023-03-15T21:58:42.711Z,14.50
2023-03-15T22:01:13.998Z,13.70
2023-03-15T22:03:44.308Z,14.20
2023-03-15T22:06:13.277Z,14.00
2023-03-15T22:08:42.496Z,14.60
2023-03-15T22:11:10.561Z,13.50
2023-03-15T22:13:39.869Z,15.00
2023-03-15T22:16:09.551Z,14.50
2023-03-15T22:18:37.466Z,14.90
2023-03-15T22:21:06.438Z,14.00
2023-03-15T22:23:34.909Z,13.60
2023-03-15T22:26:03.096Z,14.10
2023-03-15T22:28:31.244Z,14.40
2023-03-15T22:30:59.263Z,14.60
2023-03-15T22:33:27.358Z,13.70
2023-03-15T22:35:56.398Z,15.50
2023-03-15T22:38:37.832Z,13.70
2023-03-15T22:41:10.883Z,14.10
2023-03-15T22:43:39.179Z,13.30
2023-03-15T22:46:07.796Z,14.30
2023-03-15T22:48:36.436Z,13.60
2023-03-15T22:51:09.921Z,12.80
2023-03-15T22:53:38.825Z,14.30
2023-03-15T22:56:07.097Z,13.60
2023-03-15T22:58:36.197Z,13.10
2023-03-15T23:01:04.427Z,13.50
2023-03-15T23:03:33.975Z,13.90
2023-03-15T23:06:01.945Z,14.90
2023-03-15T23:08:30.058Z,14.40
2023-03-15T23:10:58.678Z,14.40
2023-03-15T23:13:26.868Z,14.70
2023-03-15T23:15:55.166Z,14.80
2023-03-15T23:18:23.166Z,13.80
2023-03-15T23:20:51.066Z,14.80
2023-03-15T23:23:19.188Z,16.70
2023-03-15T23:25:47.415Z,14.70
2023-03-15T23:28:17.878Z,13.80
2023-03-15T23:30:46.999Z,15.50
2023-03-15T23:33:15.559Z,16.80
2023-03-15T23:35:44.703Z,17.60
2023-03-15T23:38:13.672Z,16.80
2023-03-15T23:40:42.145Z,16.60
2023-03-15T23:43:10.518Z,16.50
2023-03-15T23:45:40.145Z,16.60
2023-03-15T23:48:08.200Z,16.10
2023-03-15T23:50:38.804Z,15.90
2023-03-15T23:53:06.824Z,14.80
2023-03-15T23:55:35.070Z,15.40
2023-03-15T23:58:06.853Z,14.30
